Time;durP1;ratioP1;P1;durP2;ratioP2;P2;SDS_P1;SDS_P2;PMS_P1;PMS_P2;Temp;Humidity;BMP_temperature;BMP_pressure;BME280_temperature;BME280_humidity;BME280_pressure;Samples;Min_cycle;Max_cycle;Signal;HPM_P1;HPM_P2
2022/03/05 00:00:31;;;;;;;13.77;6.90;;;1.10;99.90;;;;;;5136514;27;20553;-73
2022/03/05 00:02:58;;;;;;;12.20;7.50;;;3.00;99.90;;;;;;5118296;27;20039;-73
2022/03/05 00:05:24;;;;;;;10.10;6.43;;;;;;;;;;5122619;27;20126;-73
2022/03/05 00:07:50;;;;;;;10.38;7.03;;;1.20;99.90;;;;;;5122583;27;20042;-72
2022/03/05 00:10:18;;;;;;;10.25;6.53;;;2.10;99.90;;;;;;5096602;27;20042;-73
2022/03/05 00:12:45;;;;;;;12.20;7.40;;;2.20;99.90;;;;;;5144776;27;20563;-73
2022/03/05 00:15:11;;;;;;;11.57;7.50;;;1.90;99.90;;;;;;5148973;27;20142;-73
2022/03/05 00:17:37;;;;;;;11.45;7.05;;;3.20;99.90;;;;;;5115296;27;20497;-73
2022/03/05 00:20:04;;;;;;;12.07;6.93;;;1.00;99.90;;;;;;5148883;27;20039;-73
2022/03/05 00:22:30;;;;;;;12.63;6.95;;;1.10;99.90;;;;;;5129187;27;20046;-73
2022/03/05 00:24:55;;;;;;;10.23;6.68;;;2.20;99.90;;;;;;5131133;27;20467;-73
2022/03/05 00:27:21;;;;;;;10.73;6.60;;;1.00;99.90;;;;;;5130504;27;20038;-73
2022/03/05 00:29:47;;;;;;;13.07;7.13;;;2.20;99.90;;;;;;5146177;27;20330;-73
2022/03/05 00:32:13;;;;;;;12.88;6.93;;;2.60;99.90;;;;;;5136253;27;20061;-73
2022/03/05 00:34:38;;;;;;;11.68;6.90;;;1.90;99.90;;;;;;5147474;27;20062;-73
2022/03/05 00:37:05;;;;;;;12.75;7.30;;;1.50;99.90;;;;;;5148890;27;20054;-73
2022/03/05 00:39:31;;;;;;;13.20;6.85;;;2.00;99.90;;;;;;5128801;27;20039;-74
2022/03/05 00:41:58;;;;;;;12.23;7.15;;;0.90;99.90;;;;;;5136830;27;20046;-74
2022/03/05 00:44:23;;;;;;;13.10;7.32;;;0.80;99.90;;;;;;5133659;27;20073;-73
2022/03/05 00:46:49;;;;;;;10.40;7.03;;;0.80;99.90;;;;;;5128454;27;20387;-75
2022/03/05 00:49:15;;;;;;;13.88;7.47;;;0.80;99.90;;;;;;5112240;27;20065;-73
2022/03/05 00:51:41;;;;;;;12.48;7.20;;;0.80;99.90;;;;;;5147139;27;20112;-73
2022/03/05 00:54:07;;;;;;;15.32;7.50;;;1.20;99.90;;;;;;5130431;27;20547;-73
2022/03/05 00:56:32;;;;;;;12.45;7.63;;;0.80;99.90;;;;;;5129963;27;20061;-73
2022/03/05 00:58:58;;;;;;;12.68;7.68;;;0.80;99.90;;;;;;5148491;27;20046;-73
2022/03/05 01:01:24;;;;;;;10.75;6.80;;;0.80;99.90;;;;;;5129886;27;20099;-74
2022/03/05 01:03:50;;;;;;;11.68;7.00;;;0.80;99.90;;;;;;5129477;27;20384;-73
2022/03/05 01:06:15;;;;;;;14.40;7.70;;;0.80;99.90;;;;;;5131129;27;20042;-73
2022/03/05 01:08:41;;;;;;;10.43;6.82;;;0.80;99.90;;;;;;5111576;27;20042;-73
2022/03/05 01:11:08;;;;;;;12.48;7.05;;;0.80;99.90;;;;;;5129948;27;20047;-73
2022/03/05 01:13:37;;;;;;;12.48;7.43;;;0.80;99.90;;;;;;5129909;27;20039;-73
2022/03/05 01:16:03;;;;;;;11.50;7.60;;;0.80;99.90;;;;;;5112168;27;20034;-73
2022/03/05 01:18:29;;;;;;;13.20;7.70;;;0.80;99.90;;;;;;5128666;27;20126;-73
2022/03/05 01:20:55;;;;;;;12.77;8.07;;;0.70;99.90;;;;;;5148310;27;20126;-74
2022/03/05 01:23:20;;;;;;;11.15;6.90;;;0.70;99.90;;;;;;5147743;27;20089;-73
2022/03/05 01:25:46;;;;;;;12.30;7.70;;;0.70;99.90;;;;;;5135657;27;20038;-74
2022/03/05 01:28:12;;;;;;;14.65;7.70;;;0.70;99.90;;;;;;5121521;27;20494;-73
2022/03/05 01:30:38;;;;;;;12.10;7.88;;;0.70;99.90;;;;;;5132470;27;20031;-74
2022/03/05 01:33:04;;;;;;;13.82;8.00;;;0.70;99.90;;;;;;5100810;27;20106;-73
2022/03/05 01:35:29;;;;;;;11.55;7.53;;;0.70;99.90;;;;;;5122039;27;20471;-73
2022/03/05 01:37:56;;;;;;;12.57;7.78;;;0.60;99.90;;;;;;5129990;27;20115;-73
2022/03/05 01:40:22;;;;;;;13.13;7.75;;;0.60;99.90;;;;;;5128681;27;20446;-74
2022/03/05 01:42:48;;;;;;;11.80;7.30;;;0.60;99.90;;;;;;5133013;27;20042;-73
2022/03/05 01:45:14;;;;;;;15.05;7.80;;;0.70;99.90;;;;;;5116638;27;20050;-73
2022/03/05 01:47:40;;;;;;;13.13;7.47;;;0.70;99.90;;;;;;5133688;27;20130;-72
2022/03/05 01:50:07;;;;;;;12.40;7.20;;;0.60;99.90;;;;;;5133503;27;20492;-72
2022/03/05 01:52:33;;;;;;;13.90;7.47;;;0.50;99.90;;;;;;5132186;27;20351;-71
2022/03/05 01:54:59;;;;;;;12.00;7.15;;;0.60;99.90;;;;;;5133819;27;20043;-72
2022/03/05 01:57:24;;;;;;;11.88;7.35;;;0.60;99.90;;;;;;5114551;27;20133;-72
2022/03/05 01:59:50;;;;;;;12.32;7.05;;;0.50;99.90;;;;;;5151200;27;20471;-72
2022/03/05 02:02:17;;;;;;;11.18;7.18;;;1.70;99.90;;;;;;5132041;27;20086;-72
2022/03/05 02:04:43;;;;;;;11.30;7.03;;;0.60;99.90;;;;;;5130681;27;20034;-72
2022/03/05 02:07:09;;;;;;;12.30;7.57;;;0.50;99.90;;;;;;5151156;27;20103;-71
2022/03/05 02:09:35;;;;;;;11.85;7.43;;;0.50;99.90;;;;;;5131639;27;20039;-72
2022/03/05 02:12:02;;;;;;;11.07;6.88;;;0.50;99.90;;;;;;5131815;27;20091;-72
2022/03/05 02:14:29;;;;;;;12.02;7.18;;;0.60;99.90;;;;;;5132158;27;20043;-72
2022/03/05 02:16:55;;;;;;;13.27;7.18;;;0.60;99.90;;;;;;5132231;27;20123;-73
2022/03/05 02:19:21;;;;;;;11.73;7.05;;;0.60;99.90;;;;;;5113977;27;20046;-72
2022/03/05 02:21:47;;;;;;;10.65;6.90;;;0.50;99.90;;;;;;5150925;27;20073;-72
2022/03/05 02:24:13;;;;;;;13.10;7.40;;;0.50;99.90;;;;;;5149067;27;20185;-72
2022/03/05 02:26:39;;;;;;;11.63;7.20;;;0.40;99.90;;;;;;5129478;27;20437;-72
2022/03/05 02:29:05;;;;;;;11.80;7.18;;;0.50;99.90;;;;;;5132928;27;20035;-71
2022/03/05 02:31:30;;;;;;;10.52;7.18;;;0.40;99.90;;;;;;5131730;27;20435;-73
2022/03/05 02:33:56;;;;;;;13.18;7.85;;;0.40;99.90;;;;;;5149050;27;20506;-72
2022/03/05 02:36:24;;;;;;;11.70;7.57;;;0.30;99.90;;;;;;5142427;27;20442;-72
2022/03/05 02:38:50;;;;;;;11.02;6.88;;;0.30;99.90;;;;;;5121339;27;20503;-72
2022/03/05 02:41:18;;;;;;;13.10;7.47;;;0.30;99.90;;;;;;5131726;27;20043;-72
2022/03/05 02:43:45;;;;;;;12.95;7.45;;;0.20;99.90;;;;;;5130690;27;20046;-71
2022/03/05 02:46:10;;;;;;;12.00;7.72;;;0.20;99.90;;;;;;5114545;27;20067;-72
2022/03/05 02:48:36;;;;;;;12.57;7.97;;;1.60;99.90;;;;;;5147102;27;20382;-72
2022/03/05 02:51:02;;;;;;;15.10;8.07;;;0.20;99.90;;;;;;5131747;27;20049;-71
2022/03/05 02:53:29;;;;;;;11.63;8.27;;;0.20;99.90;;;;;;5131065;27;20035;-71
2022/03/05 02:55:55;;;;;;;12.27;7.93;;;0.80;99.90;;;;;;5150639;27;20046;-72
2022/03/05 02:58:21;;;;;;;11.63;7.85;;;0.10;99.90;;;;;;5150901;27;20051;-72
2022/03/05 03:00:46;;;;;;;14.00;7.70;;;0.10;99.90;;;;;;5149007;27;20050;-72
2022/03/05 03:03:12;;;;;;;13.63;8.13;;;0.00;99.90;;;;;;5111577;27;20071;-72
2022/03/05 03:05:38;;;;;;;13.07;8.18;;;0.00;99.90;;;;;;5128236;27;20050;-71
2022/03/05 03:08:04;;;;;;;12.05;7.80;;;0.00;99.90;;;;;;5124299;27;20039;-72
2022/03/05 03:10:30;;;;;;;13.00;8.40;;;0.00;99.90;;;;;;5130657;27;20051;-72
2022/03/05 03:12:58;;;;;;;13.80;8.23;;;0.80;99.90;;;;;;5132421;27;20038;-72
2022/03/05 03:15:24;;;;;;;13.95;7.85;;;-0.10;99.90;;;;;;5129800;27;20070;-72
2022/03/05 03:17:50;;;;;;;12.43;8.15;;;-0.20;99.90;;;;;;5130162;27;20787;-72
2022/03/05 03:20:19;;;;;;;13.05;8.23;;;-0.20;99.90;;;;;;5131677;27;20042;-72
2022/03/05 03:22:46;;;;;;;11.82;7.82;;;-0.20;99.90;;;;;;5130082;27;20387;-72
2022/03/05 03:25:11;;;;;;;14.27;8.10;;;-0.30;99.90;;;;;;5149679;27;20050;-71
2022/03/05 03:27:38;;;;;;;12.90;7.50;;;-0.20;99.90;;;;;;5130869;27;20035;-71
2022/03/05 03:30:05;;;;;;;16.38;8.25;;;0.60;99.90;;;;;;5131217;27;20050;-71
2022/03/05 03:32:30;;;;;;;12.45;8.00;;;-0.20;99.90;;;;;;5129030;27;20759;-71
2022/03/05 03:34:56;;;;;;;13.98;8.32;;;-0.20;99.90;;;;;;5148795;27;20133;-72
2022/03/05 03:37:22;;;;;;;12.90;7.95;;;0.60;99.90;;;;;;5129407;27;20039;-71
2022/03/05 03:39:47;;;;;;;12.50;8.15;;;-0.20;99.90;;;;;;5131607;27;20145;-71
2022/03/05 03:42:14;;;;;;;11.82;7.72;;;-0.30;99.90;;;;;;5114301;27;20060;-72
2022/03/05 03:44:40;;;;;;;13.05;7.72;;;-0.30;99.90;;;;;;5130306;27;20375;-71
2022/03/05 03:47:06;;;;;;;12.02;7.90;;;-0.30;99.90;;;;;;5130663;27;20050;-72
2022/03/05 03:49:31;;;;;;;15.43;7.47;;;-0.30;99.90;;;;;;5122113;27;20043;-71
2022/03/05 03:51:57;;;;;;;14.02;8.07;;;-0.30;99.90;;;;;;5133165;27;20051;-71
2022/03/05 03:54:22;;;;;;;13.45;7.82;;;-0.30;99.90;;;;;;5137617;27;20043;-71
2022/03/05 03:56:48;;;;;;;12.73;8.15;;;-0.40;99.90;;;;;;5129168;27;20138;-71
2022/03/05 03:59:14;;;;;;;14.75;7.97;;;-0.30;99.90;;;;;;5131384;27;20065;-72
2022/03/05 04:01:39;;;;;;;12.20;7.93;;;-0.30;99.90;;;;;;5130273;27;20046;-71
2022/03/05 04:04:05;;;;;;;13.02;7.57;;;-0.30;99.90;;;;;;5129423;27;20042;-71
2022/03/05 04:08:41;;;;;;;14.32;8.50;;;-0.30;99.90;;;;;;5130737;27;20103;-71
2022/03/05 04:09:16;;;;;;;13.20;6.97;;;-0.40;99.90;;;;;;5146208;27;20042;-72
2022/03/05 04:11:42;;;;;;;12.40;7.28;;;-0.40;99.90;;;;;;5112700;27;20402;-72
2022/03/05 04:14:08;;;;;;;13.68;7.57;;;-0.40;99.90;;;;;;5131406;27;20555;-72
2022/03/05 04:16:33;;;;;;;12.43;7.95;;;-0.40;99.90;;;;;;5130932;27;20082;-73
2022/03/05 04:18:59;;;;;;;12.13;7.18;;;0.00;99.90;;;;;;5131392;27;20027;-72
2022/03/05 04:21:24;;;;;;;11.60;7.55;;;-0.40;99.90;;;;;;5147414;27;20116;-72
2022/03/05 04:23:51;;;;;;;13.65;7.38;;;-0.40;99.90;;;;;;5134653;27;20059;-72
2022/03/05 04:26:16;;;;;;;10.90;7.00;;;-0.50;99.90;;;;;;5149097;27;20043;-72
2022/03/05 04:28:42;;;;;;;13.30;7.55;;;-0.50;99.90;;;;;;5148352;27;20102;-72
2022/03/05 04:31:08;;;;;;;12.05;6.70;;;0.90;99.90;;;;;;5131378;27;20035;-72
2022/03/05 04:33:33;;;;;;;13.32;6.95;;;-0.50;99.90;;;;;;5130842;27;20043;-72
2022/03/05 04:35:59;;;;;;;11.27;7.13;;;0.50;99.90;;;;;;5148799;27;20069;-71
2022/03/05 04:38:25;;;;;;;11.93;7.20;;;-0.60;99.90;;;;;;5149418;27;20065;-72
2022/03/05 04:40:51;;;;;;;11.48;6.75;;;-0.60;99.90;;;;;;5147587;27;20070;-72
2022/03/05 04:43:16;;;;;;;10.75;6.50;;;-0.60;99.90;;;;;;5149555;27;20066;-73
2022/03/05 04:45:42;;;;;;;10.45;6.57;;;-0.60;99.90;;;;;;5129197;27;20081;-72
2022/03/05 04:48:08;;;;;;;15.30;7.15;;;-0.50;99.90;;;;;;5147852;27;20179;-72
2022/03/05 04:50:34;;;;;;;13.18;6.85;;;0.30;99.90;;;;;;5130460;27;20498;-72
2022/03/05 04:53:00;;;;;;;11.85;7.13;;;-0.60;99.90;;;;;;5138293;27;20535;-72
2022/03/05 04:55:26;;;;;;;12.52;7.25;;;-0.70;99.90;;;;;;5150235;27;20134;-72
2022/03/05 04:57:52;;;;;;;11.40;6.50;;;-0.60;99.90;;;;;;5129875;27;20188;-72
2022/03/05 05:00:18;;;;;;;11.20;6.97;;;0.40;99.90;;;;;;5151839;27;20066;-72
2022/03/05 05:02:44;;;;;;;11.07;7.32;;;-0.20;99.90;;;;;;5150732;27;20045;-73
2022/03/05 05:05:10;;;;;;;11.60;7.22;;;-0.80;99.90;;;;;;5153149;27;20130;-72
2022/03/05 05:07:37;;;;;;;11.23;7.03;;;-0.60;99.90;;;;;;5153758;27;20101;-72
2022/03/05 05:10:03;;;;;;;11.25;7.00;;;-0.60;99.90;;;;;;5153064;27;20043;-72
2022/03/05 05:12:29;;;;;;;10.98;6.50;;;0.20;99.90;;;;;;5152102;27;20043;-72
2022/03/05 05:14:54;;;;;;;11.80;7.00;;;-0.60;99.90;;;;;;5133403;27;20057;-72
2022/03/05 05:17:20;;;;;;;13.77;6.88;;;-0.60;99.90;;;;;;5150759;27;20042;-72
2022/03/05 05:19:45;;;;;;;10.15;6.70;;;-0.60;99.90;;;;;;5151010;27;20055;-72
2022/03/05 05:22:11;;;;;;;10.73;6.63;;;-0.70;99.90;;;;;;5133700;27;20043;-72
2022/03/05 05:24:38;;;;;;;11.15;6.88;;;-0.70;99.90;;;;;;5153694;27;20099;-72
2022/03/05 05:27:05;;;;;;;12.38;6.60;;;0.40;99.90;;;;;;5152863;27;20652;-72
2022/03/05 05:29:31;;;;;;;11.38;6.47;;;-0.70;99.90;;;;;;5150673;27;20053;-72
2022/03/05 05:31:57;;;;;;;12.23;7.03;;;-0.70;99.90;;;;;;5152116;27;20102;-72
2022/03/05 05:34:23;;;;;;;9.57;6.30;;;-0.70;99.90;;;;;;5152018;27;20433;-73
2022/03/05 05:36:50;;;;;;;13.43;7.38;;;-0.70;99.90;;;;;;5150324;27;20553;-72
2022/03/05 05:39:16;;;;;;;10.93;6.90;;;-0.70;99.90;;;;;;5133941;27;20084;-73
2022/03/05 05:41:42;;;;;;;10.88;7.05;;;-0.70;99.90;;;;;;5133051;27;20050;-72
2022/03/05 05:44:10;;;;;;;10.80;6.75;;;-0.80;99.90;;;;;;5133948;27;20064;-72
2022/03/05 05:46:36;;;;;;;11.55;6.60;;;-0.80;99.90;;;;;;5123047;27;20050;-72
2022/03/05 05:49:03;;;;;;;10.55;6.60;;;-0.80;99.90;;;;;;5110430;27;20344;-72
2022/03/05 05:51:29;;;;;;;13.65;6.85;;;-1.10;99.90;;;;;;5134895;27;20046;-72
2022/03/05 05:53:56;;;;;;;11.85;6.65;;;-0.80;99.90;;;;;;5135444;27;20045;-72
2022/03/05 05:56:22;;;;;;;13.00;6.93;;;-0.80;99.90;;;;;;5133049;27;20050;-72
2022/03/05 05:58:49;;;;;;;13.70;7.20;;;-0.80;99.90;;;;;;5127703;27;21018;-72
2022/03/05 06:01:19;;;;;;;11.13;6.78;;;-0.80;99.90;;;;;;5107662;27;20050;-71
2022/03/05 06:03:45;;;;;;;12.45;6.97;;;-0.40;99.90;;;;;;5143399;27;20562;-72
2022/03/05 06:06:12;;;;;;;11.10;6.95;;;-0.90;99.90;;;;;;5143109;27;20042;-71
2022/03/05 06:08:39;;;;;;;10.88;6.85;;;-0.90;99.90;;;;;;5145522;27;20387;-71
2022/03/05 06:11:05;;;;;;;12.52;6.90;;;0.80;99.90;;;;;;5139988;27;20054;-71
2022/03/05 06:13:30;;;;;;;12.15;7.07;;;-0.80;99.90;;;;;;5144488;27;20480;-71
2022/03/05 06:15:56;;;;;;;10.90;6.95;;;0.60;99.90;;;;;;5144874;27;20071;-71
2022/03/05 06:18:22;;;;;;;10.77;6.60;;;-0.90;99.90;;;;;;5140809;27;20043;-72
2022/03/05 06:20:49;;;;;;;9.85;6.75;;;-0.90;99.90;;;;;;5113459;27;20395;-72
2022/03/05 06:23:15;;;;;;;11.48;7.32;;;0.60;99.90;;;;;;5125093;27;20050;-72
2022/03/05 06:25:40;;;;;;;12.88;7.05;;;-0.90;99.90;;;;;;5138414;27;20496;-71
2022/03/05 06:28:06;;;;;;;11.82;6.95;;;-0.90;99.90;;;;;;5142577;27;20035;-72
2022/03/05 06:30:32;;;;;;;11.82;7.35;;;-0.90;99.90;;;;;;5122798;27;20171;-72
2022/03/05 06:32:58;;;;;;;11.60;7.18;;;-0.60;99.90;;;;;;5137915;27;20125;-72
2022/03/05 06:35:24;;;;;;;11.75;6.82;;;1.60;99.90;;;;;;5123738;27;20053;-72
2022/03/05 06:37:50;;;;;;;12.88;7.30;;;-0.80;99.90;;;;;;5137536;27;20043;-72
2022/03/05 06:40:16;;;;;;;10.27;6.90;;;-0.80;99.90;;;;;;5139456;27;20046;-72
2022/03/05 06:42:42;;;;;;;12.23;7.50;;;1.00;99.90;;;;;;5131298;27;20034;-73
2022/03/05 06:45:09;;;;;;;13.00;7.85;;;-0.80;99.90;;;;;;5130563;27;20039;-72
2022/03/05 06:47:36;;;;;;;12.02;6.88;;;-0.70;99.90;;;;;;5112524;27;20076;-72
2022/03/05 06:50:03;;;;;;;12.15;7.60;;;-0.50;99.90;;;;;;5131582;27;20065;-73
2022/03/05 06:52:28;;;;;;;12.38;8.50;;;-0.40;99.90;;;;;;5130766;27;20047;-73
2022/03/05 06:54:54;;;;;;;11.05;6.57;;;-0.30;99.90;;;;;;5132756;27;20043;-74
2022/03/05 06:57:20;;;;;;;9.85;6.93;;;-0.10;99.90;;;;;;5129769;27;20054;-73
2022/03/05 06:59:45;;;;;;;14.43;7.55;;;1.50;99.90;;;;;;5116121;27;20032;-73
2022/03/05 07:02:11;;;;;;;11.30;7.13;;;0.90;99.90;;;;;;5147147;27;20043;-73
2022/03/05 07:04:36;;;;;;;11.38;7.15;;;1.40;99.90;;;;;;5125475;27;20145;-73
2022/03/05 07:07:03;;;;;;;10.95;7.32;;;2.20;99.90;;;;;;5142476;27;20141;-74
2022/03/05 07:09:28;;;;;;;12.07;6.72;;;3.30;99.90;;;;;;5130905;27;20570;-73
2022/03/05 07:11:54;;;;;;;12.57;6.97;;;5.50;99.90;;;;;;5131635;27;20042;-72
2022/03/05 07:14:20;;;;;;;10.23;6.75;;;4.80;99.90;;;;;;5138117;27;20081;-72
2022/03/05 07:16:45;;;;;;;11.15;6.32;;;5.10;99.90;;;;;;5146937;27;20038;-73
2022/03/05 07:19:11;;;;;;;10.30;6.63;;;6.10;99.90;;;;;;5140131;27;20042;-73
2022/03/05 07:21:37;;;;;;;10.77;7.55;;;5.50;99.90;;;;;;5142132;27;20035;-73
2022/03/05 07:24:08;;;;;;;10.80;7.13;;;5.70;99.90;;;;;;5104602;27;20031;-73
2022/03/05 07:26:37;;;;;;;11.48;7.10;;;5.70;99.90;;;;;;5149679;27;20445;-73
2022/03/05 07:29:03;;;;;;;9.73;7.30;;;6.10;99.90;;;;;;5131599;27;20130;-72
2022/03/05 07:31:28;;;;;;;10.95;7.60;;;8.00;99.90;;;;;;5130867;27;20396;-73
2022/03/05 07:33:54;;;;;;;11.63;6.75;;;7.10;99.90;;;;;;5127518;27;20050;-73
2022/03/05 07:36:20;;;;;;;11.40;7.53;;;7.40;99.90;;;;;;5129244;27;20066;-72
2022/03/05 07:38:46;;;;;;;10.60;7.10;;;7.40;99.90;;;;;;5128927;27;20038;-73
2022/03/05 07:41:12;;;;;;;12.40;7.28;;;7.20;99.90;;;;;;5132293;27;20137;-73
2022/03/05 07:43:39;;;;;;;11.85;7.05;;;7.70;99.90;;;;;;5141816;27;20558;-74
2022/03/05 07:46:05;;;;;;;11.73;7.05;;;8.90;99.90;;;;;;5111440;27;20074;-73
2022/03/05 07:48:31;;;;;;;11.88;6.97;;;8.40;99.90;;;;;;5136064;27;20071;-74
2022/03/05 07:50:59;;;;;;;10.20;6.90;;;8.60;99.90;;;;;;5128764;27;20071;-73
2022/03/05 07:53:27;;;;;;;11.35;7.32;;;9.60;99.90;;;;;;5140454;27;20045;-73
2022/03/05 07:55:53;;;;;;;11.55;7.63;;;8.70;99.90;;;;;;5148984;27;20153;-76
2022/03/05 07:58:18;;;;;;;10.90;7.47;;;9.00;99.90;;;;;;5113650;27;20070;-71
2022/03/05 08:00:44;;;;;;;11.80;7.00;;;8.50;99.90;;;;;;5131502;27;20046;-72
2022/03/05 08:03:10;;;;;;;11.55;7.30;;;8.10;99.90;;;;;;5131771;27;20072;-72
2022/03/05 08:05:36;;;;;;;11.18;7.28;;;7.20;99.90;;;;;;5130541;27;20407;-72
2022/03/05 08:08:02;;;;;;;11.48;7.93;;;7.40;99.90;;;;;;5129628;27;20043;-72
2022/03/05 08:10:27;;;;;;;10.32;7.78;;;10.00;99.90;;;;;;5148507;27;20063;-70
2022/03/05 08:12:53;;;;;;;9.45;7.28;;;12.00;99.90;;;;;;5129813;27;20072;-71
2022/03/05 08:15:19;;;;;;;12.30;8.35;;;13.90;99.30;;;;;;5137019;27;20043;-71
2022/03/05 08:17:53;;;;;;;9.80;7.05;;;15.30;95.50;;;;;;5138688;27;20065;-70
2022/03/05 08:20:19;;;;;;;11.48;7.40;;;16.50;92.20;;;;;;5122351;27;20621;-72
2022/03/05 08:22:45;;;;;;;10.95;7.43;;;17.60;89.40;;;;;;5129795;27;20039;-73
2022/03/05 08:25:10;;;;;;;10.02;6.85;;;18.00;80.90;;;;;;5130521;27;20372;-72
2022/03/05 08:27:36;;;;;;;12.02;7.35;;;18.40;76.70;;;;;;5149181;27;20054;-72
2022/03/05 08:30:03;;;;;;;9.43;6.90;;;16.30;83.90;;;;;;5130093;27;20435;-71
2022/03/05 08:32:29;;;;;;;12.43;6.95;;;14.60;89.90;;;;;;5127688;27;20053;-72
2022/03/05 08:34:54;;;;;;;10.90;6.68;;;12.90;94.30;;;;;;5134626;27;20043;-72
2022/03/05 08:37:20;;;;;;;10.60;7.35;;;11.80;95.90;;;;;;5153246;27;20039;-72
2022/03/05 08:39:45;;;;;;;10.38;6.40;;;11.00;97.70;;;;;;5147396;27;20402;-71
2022/03/05 08:42:11;;;;;;;12.07;6.57;;;11.20;99.10;;;;;;5117459;27;20114;-70
2022/03/05 08:44:37;;;;;;;12.70;7.13;;;9.70;99.50;;;;;;5153494;27;20052;-71
2022/03/05 08:47:03;;;;;;;11.20;6.97;;;9.90;99.90;;;;;;5134801;27;20138;-71
2022/03/05 08:49:29;;;;;;;10.07;7.57;;;12.30;97.80;;;;;;5133072;27;20066;-72
2022/03/05 08:51:54;;;;;;;10.60;7.22;;;15.00;94.10;;;;;;5132767;27;20186;-72
2022/03/05 08:54:20;;;;;;;12.15;7.25;;;16.40;91.40;;;;;;5151463;27;21415;-72
2022/03/05 08:56:47;;;;;;;11.02;7.43;;;18.00;83.50;;;;;;5152949;27;20046;-72
2022/03/05 08:59:13;;;;;;;10.20;7.47;;;19.50;72.30;;;;;;5150693;27;20054;-72
2022/03/05 09:01:40;;;;;;;11.48;7.43;;;20.70;64.20;;;;;;5133836;27;20042;-72
2022/03/05 09:04:06;;;;;;;10.63;7.35;;;21.60;57.90;;;;;;5150846;27;20034;-72
2022/03/05 09:06:32;;;;;;;12.50;7.63;;;22.40;55.50;;;;;;5132775;27;20048;-72
2022/03/05 09:09:00;;;;;;;10.18;7.60;;;22.90;54.20;;;;;;5128049;27;20118;-72
2022/03/05 09:11:26;;;;;;;11.02;7.35;;;23.30;50.90;;;;;;5135075;27;20325;-73
2022/03/05 09:13:52;;;;;;;11.45;7.95;;;23.20;49.00;;;;;;5122107;27;20091;-72
2022/03/05 09:16:18;;;;;;;11.20;7.50;;;23.70;49.50;;;;;;5135856;27;20050;-71
2022/03/05 09:18:44;;;;;;;12.18;8.20;;;24.30;49.00;;;;;;5110067;27;20051;-70
2022/03/05 09:21:09;;;;;;;10.63;7.60;;;24.80;47.60;;;;;;5130069;27;20047;-70
2022/03/05 09:23:35;;;;;;;11.43;7.97;;;25.30;46.40;;;;;;5130063;27;20043;-70
2022/03/05 09:26:01;;;;;;;10.20;7.30;;;25.40;45.70;;;;;;5132318;27;20047;-72
2022/03/05 09:28:27;;;;;;;11.95;8.95;;;26.10;45.50;;;;;;5141493;27;20042;-72
2022/03/05 09:30:52;;;;;;;11.38;8.88;;;25.80;43.00;;;;;;5132354;27;20133;-72
2022/03/05 09:33:22;;;;;;;13.05;8.68;;;25.10;42.70;;;;;;5114405;27;20479;-71
2022/03/05 09:35:49;;;;;;;12.73;9.10;;;24.80;42.60;;;;;;5129819;27;20614;-71
2022/03/05 09:38:15;;;;;;;13.05;8.85;;;24.80;43.00;;;;;;5131804;27;20086;-70
2022/03/05 09:40:41;;;;;;;13.43;9.30;;;25.10;42.10;;;;;;5131646;27;20414;-72
2022/03/05 09:43:07;;;;;;;12.05;8.73;;;25.00;41.50;;;;;;5152457;27;20042;-72
2022/03/05 09:45:34;;;;;;;11.23;8.60;;;25.20;41.80;;;;;;5149839;27;20048;-72
2022/03/05 09:48:00;;;;;;;11.85;8.27;;;25.10;42.00;;;;;;5127768;27;20087;-73
2022/03/05 09:50:32;;;;;;;11.65;9.27;;;25.30;40.70;;;;;;5131980;27;20513;-71
2022/03/05 09:53:01;;;;;;;11.20;8.35;;;25.50;41.30;;;;;;5132663;27;20049;-72
2022/03/05 09:55:27;;;;;;;12.57;9.00;;;25.20;40.50;;;;;;5133991;27;20054;-72
2022/03/05 09:57:53;;;;;;;14.48;8.85;;;25.30;40.90;;;;;;5133481;27;20146;-73
2022/03/05 10:00:19;;;;;;;12.60;9.10;;;25.20;40.70;;;;;;5151431;27;20486;-72
2022/03/05 10:02:47;;;;;;;11.73;8.40;;;25.80;40.80;;;;;;5130045;27;20047;-73
2022/03/05 10:05:26;;;;;;;14.20;9.15;;;26.00;40.10;;;;;;5119787;27;20082;-72
2022/03/05 10:08:01;;;;;;;10.75;8.60;;;26.40;40.10;;;;;;5131234;27;20428;-73
2022/03/05 10:10:28;;;;;;;14.15;9.02;;;26.60;39.60;;;;;;5133163;27;20115;-73
2022/03/05 10:12:54;;;;;;;12.45;8.88;;;26.40;39.30;;;;;;5132455;27;20038;-72
2022/03/05 10:15:22;;;;;;;12.02;9.00;;;26.60;39.40;;;;;;5148783;27;20035;-73
2022/03/05 10:17:52;;;;;;;12.77;8.98;;;27.30;39.50;;;;;;5129312;27;20042;-73
2022/03/05 10:20:26;;;;;;;14.68;8.50;;;27.90;38.80;;;;;;5129505;27;20078;-73
2022/03/05 10:23:04;;;;;;;11.43;8.65;;;28.00;38.50;;;;;;5113810;27;20138;-73
2022/03/05 10:25:49;;;;;;;11.65;8.60;;;28.70;38.30;;;;;;5109025;27;20228;-73
2022/03/05 10:28:27;;;;;;;13.95;9.13;;;29.40;38.10;;;;;;5132804;27;20095;-71
2022/03/05 10:30:55;;;;;;;12.57;9.15;;;30.10;37.70;;;;;;5115425;27;20046;-72
2022/03/05 10:33:24;;;;;;;12.52;9.35;;;29.90;36.60;;;;;;5132779;27;20053;-72
2022/03/05 10:35:50;;;;;;;12.48;9.23;;;29.80;36.60;;;;;;5110776;27;20511;-72
2022/03/05 10:38:17;;;;;;;13.43;9.15;;;29.40;36.40;;;;;;5129822;27;20118;-72
2022/03/05 10:40:42;;;;;;;11.30;8.73;;;29.20;35.70;;;;;;5131540;27;20118;-72
2022/03/05 10:43:08;;;;;;;12.15;9.43;;;28.70;36.00;;;;;;5128573;27;20125;-72
2022/03/05 10:45:55;;;;;;;13.40;9.35;;;28.70;36.10;;;;;;5130875;27;20171;-72
2022/03/05 10:48:29;;;;;;;11.52;9.20;;;29.20;36.00;;;;;;5114757;27;20399;-72
2022/03/05 10:50:59;;;;;;;12.90;9.18;;;29.20;36.00;;;;;;5130655;27;20042;-72
2022/03/05 10:53:39;;;;;;;12.02;8.95;;;30.00;35.30;;;;;;5132277;27;20439;-74
2022/03/05 10:56:30;;;;;;;12.57;9.38;;;30.00;35.40;;;;;;5115429;27;20390;-72
2022/03/05 10:59:12;;;;;;;12.55;9.57;;;30.40;35.00;;;;;;5132413;27;20352;-74
2022/03/05 11:01:43;;;;;;;13.07;10.00;;;30.40;34.90;;;;;;5130886;27;20427;-72
2022/03/05 11:04:11;;;;;;;13.55;9.77;;;30.60;34.40;;;;;;5131197;27;20134;-73
2022/03/05 11:06:39;;;;;;;13.70;9.55;;;30.60;34.80;;;;;;5132113;27;20049;-73
2022/03/05 11:09:06;;;;;;;12.98;9.52;;;30.90;35.20;;;;;;5136745;27;20083;-73
2022/03/05 11:11:38;;;;;;;13.80;9.82;;;30.70;34.40;;;;;;5110595;27;20084;-73
2022/03/05 11:14:11;;;;;;;13.10;9.52;;;30.70;34.00;;;;;;5111992;27;20488;-73
2022/03/05 11:16:36;;;;;;;13.38;9.15;;;30.60;34.00;;;;;;5110779;27;20057;-73
2022/03/05 11:19:02;;;;;;;11.45;9.27;;;30.40;34.10;;;;;;5118041;27;20121;-73
2022/03/05 11:21:29;;;;;;;12.80;9.10;;;30.30;34.20;;;;;;5131834;27;20046;-73
2022/03/05 11:23:58;;;;;;;12.35;9.10;;;30.20;34.00;;;;;;5131791;27;20059;-73
2022/03/05 11:26:27;;;;;;;11.95;9.13;;;29.90;34.00;;;;;;5131970;27;20046;-72
2022/03/05 11:28:53;;;;;;;13.50;9.93;;;30.10;34.50;;;;;;5117118;27;20093;-73
2022/03/05 11:31:24;;;;;;;15.10;10.57;;;30.40;34.00;;;;;;5111391;27;20082;-73
2022/03/05 11:33:50;;;;;;;17.33;11.68;;;30.70;34.00;;;;;;5109290;27;20051;-72
2022/03/05 11:36:28;;;;;;;14.98;11.20;;;30.70;33.70;;;;;;5124103;27;20027;-73
2022/03/05 11:39:08;;;;;;;15.15;11.73;;;30.60;33.70;;;;;;5143432;27;20464;-73
2022/03/05 11:41:51;;;;;;;16.10;11.85;;;30.30;33.70;;;;;;5113757;27;20058;-73
2022/03/05 11:44:20;;;;;;;16.50;12.93;;;29.70;33.40;;;;;;5131015;27;20046;-73
2022/03/05 11:46:46;;;;;;;13.93;11.23;;;28.80;33.90;;;;;;5092565;27;20050;-74
2022/03/05 11:49:13;;;;;;;14.18;10.32;;;28.60;34.10;;;;;;5116778;27;20039;-73
2022/03/05 11:51:54;;;;;;;14.73;11.07;;;28.70;34.30;;;;;;5144059;27;20042;-73
2022/03/05 11:54:20;;;;;;;13.20;10.02;;;28.50;34.40;;;;;;5123639;27;20043;-73
2022/03/05 11:57:11;;;;;;;13.20;10.90;;;28.20;34.30;;;;;;5125653;27;20118;-73
2022/03/05 11:59:53;;;;;;;13.65;10.80;;;28.10;34.40;;;;;;5128046;27;20065;-73
2022/03/05 12:02:44;;;;;;;14.60;11.50;;;28.50;34.40;;;;;;5094375;27;20050;-73
2022/03/05 12:05:29;;;;;;;13.02;10.80;;;28.40;34.50;;;;;;5111229;27;20381;-73
2022/03/05 12:07:55;;;;;;;16.02;10.18;;;28.30;34.70;;;;;;5109304;28;20039;-72
2022/03/05 12:10:22;;;;;;;15.43;10.38;;;28.00;34.30;;;;;;5110987;27;20053;-72
2022/03/05 12:12:59;;;;;;;14.10;10.70;;;28.10;34.50;;;;;;5128845;27;20130;-74
2022/03/05 12:15:44;;;;;;;12.57;10.07;;;28.30;34.60;;;;;;5110256;28;20466;-72
2022/03/05 12:18:14;;;;;;;11.13;8.80;;;28.30;34.50;;;;;;5108184;28;20042;-72
2022/03/05 12:20:42;;;;;;;14.30;9.35;;;28.40;34.40;;;;;;5109528;28;20047;-75
2022/03/05 12:23:16;;;;;;;11.30;9.38;;;29.10;34.10;;;;;;5109054;28;20109;-73
2022/03/05 12:25:44;;;;;;;11.98;9.73;;;29.70;34.10;;;;;;5110016;28;20035;-72
2022/03/05 12:28:14;;;;;;;13.52;9.63;;;30.60;33.50;;;;;;5108726;28;20119;-73
2022/03/05 12:30:40;;;;;;;15.13;9.82;;;30.60;33.30;;;;;;5109959;28;20086;-73
2022/03/05 12:33:12;;;;;;;13.05;9.93;;;30.50;33.10;;;;;;5110403;28;20059;-73
2022/03/05 12:35:39;;;;;;;12.60;9.57;;;31.00;32.90;;;;;;5111669;28;20046;-73
2022/03/05 12:38:06;;;;;;;13.20;9.82;;;31.10;32.90;;;;;;5112361;28;20058;-75
2022/03/05 12:40:32;;;;;;;12.82;10.32;;;31.60;32.80;;;;;;5095492;28;20035;-73